Time;durP1;ratioP1;P1;durP2;ratioP2;P2;SDS_P1;SDS_P2;PMS_P1;PMS_P2;Temp;Humidity;BMP_temperature;BMP_pressure;BME280_temperature;BME280_humidity;BME280_pressure;Samples;Min_cycle;Max_cycle;Signal;HPM_P1;HPM_P2
2023/12/31 00:01:44;;;;;;;;;;;12.00;88.30;;;;;;4978486;28;19914;-77
2023/12/31 00:04:10;;;;;;;;;;;12.00;89.00;;;;;;4978299;28;20591;-78
2023/12/31 00:06:35;;;;;;;;;;;12.00;88.20;;;;;;4978329;28;19921;-77
2023/12/31 00:09:01;;;;;;;;;;;12.00;89.10;;;;;;4978226;28;19914;-77
2023/12/31 00:11:26;;;;;;;;;;;12.00;89.00;;;;;;4978639;28;19917;-77
2023/12/31 00:13:51;;;;;;;;;;;12.00;88.60;;;;;;4978137;28;20383;-78
2023/12/31 00:16:17;;;;;;;;;;;12.00;89.20;;;;;;4977791;28;19918;-77
2023/12/31 00:18:42;;;;;;;;;;;12.00;88.20;;;;;;4978070;28;19964;-78
2023/12/31 00:21:08;;;;;;;;;;;12.00;88.30;;;;;;4977796;28;19910;-78
2023/12/31 00:23:33;;;;;;;;;;;12.00;88.70;;;;;;4977996;28;19917;-78
2023/12/31 00:25:59;;;;;;;;;;;12.00;88.50;;;;;;4977869;28;19910;-77
2023/12/31 00:28:24;;;;;;;;;;;12.00;88.90;;;;;;4977916;28;20378;-77
2023/12/31 00:30:49;;;;;;;;;;;12.00;89.00;;;;;;4977892;28;19940;-77
2023/12/31 00:33:16;;;;;;;;;;;11.90;88.70;;;;;;4995122;28;19909;-78
2023/12/31 00:35:41;;;;;;;;;;;12.00;88.30;;;;;;4977497;28;19909;-77
2023/12/31 00:38:06;;;;;;;;;;;12.00;88.70;;;;;;4995043;28;19917;-78
2023/12/31 00:40:32;;;;;;;;;;;12.00;88.60;;;;;;4994997;28;19909;-77
2023/12/31 00:42:57;;;;;;;;;;;11.90;88.80;;;;;;4977520;28;19913;-77
2023/12/31 00:45:23;;;;;;;;;;;12.00;88.70;;;;;;4977656;28;19917;-77
2023/12/31 00:47:48;;;;;;;;;;;12.00;88.70;;;;;;4977090;28;19917;-77
2023/12/31 00:50:13;;;;;;;;;;;12.00;89.00;;;;;;4995320;28;19957;-78
2023/12/31 00:52:39;;;;;;;;;;;12.00;88.80;;;;;;4977465;28;20449;-78
2023/12/31 00:55:04;;;;;;;;;;;12.00;88.60;;;;;;4994952;28;20263;-78
2023/12/31 00:57:30;;;;;;;;;;;12.00;88.50;;;;;;4977248;28;19913;-77
2023/12/31 00:59:55;;;;;;;;;;;12.00;88.90;;;;;;4977144;28;20674;-78
2023/12/31 01:02:21;;;;;;;;;;;12.00;89.10;;;;;;4977056;28;19918;-78
2023/12/31 01:04:46;;;;;;;;;;;12.00;89.10;;;;;;4994589;28;19961;-77
2023/12/31 01:07:13;;;;;;;;;;;12.00;88.90;;;;;;4994481;28;19969;-77
2023/12/31 01:09:39;;;;;;;;;;;12.00;89.10;;;;;;4976865;28;19917;-78
2023/12/31 01:12:04;;;;;;;;;;;12.00;89.30;;;;;;4993662;28;20337;-77
2023/12/31 01:14:29;;;;;;;;;;;12.00;89.00;;;;;;4976684;28;20013;-78
2023/12/31 01:16:55;;;;;;;;;;;12.00;89.20;;;;;;4976595;28;19918;-78
2023/12/31 01:19:20;;;;;;;;;;;12.00;89.00;;;;;;4976809;28;19910;-78
2023/12/31 01:21:46;;;;;;;;;;;12.00;89.20;;;;;;4976835;28;19914;-78
2023/12/31 01:24:11;;;;;;;;;;;12.00;89.20;;;;;;4976981;28;19922;-77
2023/12/31 01:26:37;;;;;;;;;;;12.00;89.40;;;;;;4976500;28;19914;-77
2023/12/31 01:29:02;;;;;;;;;;;12.00;89.50;;;;;;4976680;28;20263;-77
2023/12/31 01:31:27;;;;;;;;;;;12.00;89.40;;;;;;4994140;28;19909;-78
2023/12/31 01:33:53;;;;;;;;;;;11.90;89.40;;;;;;4994369;28;19916;-77
2023/12/31 01:36:20;;;;;;;;;;;12.00;89.30;;;;;;4976104;28;19910;-78
2023/12/31 01:38:46;;;;;;;;;;;12.00;89.40;;;;;;4976875;28;19957;-77
2023/12/31 01:41:11;;;;;;;;;;;11.90;89.30;;;;;;4976619;28;19961;-77
2023/12/31 01:43:37;;;;;;;;;;;12.00;89.50;;;;;;4976679;28;20404;-77
2023/12/31 01:46:08;;;;;;;;;;;12.00;89.50;;;;;;4976180;28;20586;-78
2023/12/31 01:48:34;;;;;;;;;;;12.00;89.50;;;;;;4976291;28;19917;-78
2023/12/31 01:51:01;;;;;;;;;;;12.00;89.30;;;;;;4976314;28;19909;-77
2023/12/31 01:53:27;;;;;;;;;;;12.00;89.40;;;;;;4976444;28;20371;-77
2023/12/31 01:55:53;;;;;;;;;;;12.00;89.50;;;;;;4976489;28;19957;-77
2023/12/31 01:58:19;;;;;;;;;;;12.00;89.50;;;;;;4976303;28;19917;-77
2023/12/31 02:00:44;;;;;;;;;;;12.00;89.50;;;;;;4993558;28;19910;-77
2023/12/31 02:03:10;;;;;;;;;;;12.00;89.40;;;;;;4976133;28;19914;-77
2023/12/31 02:05:35;;;;;;;;;;;12.00;89.40;;;;;;4993578;28;19916;-77
2023/12/31 02:08:01;;;;;;;;;;;12.00;89.40;;;;;;4975895;28;19910;-77
2023/12/31 02:10:26;;;;;;;;;;;12.00;89.60;;;;;;4976103;28;19909;-77
2023/12/31 02:12:52;;;;;;;;;;;12.00;89.40;;;;;;4976103;28;19921;-76
2023/12/31 02:15:34;;;;;;;;;;;12.00;89.40;;;;;;4976195;28;19928;-77
2023/12/31 02:18:00;;;;;;;;;;;12.00;89.50;;;;;;4993093;28;20016;-77
2023/12/31 02:20:26;;;;;;;;;;;12.00;89.50;;;;;;4975902;28;19960;-77
2023/12/31 02:22:52;;;;;;;;;;;11.90;89.50;;;;;;4975460;28;19917;-78
2023/12/31 02:25:18;;;;;;;;;;;12.00;89.60;;;;;;4993257;28;20275;-77
2023/12/31 02:27:44;;;;;;;;;;;12.00;89.50;;;;;;4975588;28;19918;-77
2023/12/31 02:30:10;;;;;;;;;;;12.00;89.60;;;;;;4975992;28;19956;-77
2023/12/31 02:32:35;;;;;;;;;;;12.00;89.50;;;;;;4975499;28;19957;-77
2023/12/31 02:35:01;;;;;;;;;;;12.00;89.50;;;;;;4992754;28;19910;-77
2023/12/31 02:37:26;;;;;;;;;;;12.00;89.60;;;;;;4975556;28;19910;-77
2023/12/31 02:39:52;;;;;;;;;;;12.00;89.60;;;;;;4992916;28;20439;-78
2023/12/31 02:42:17;;;;;;;;;;;12.00;89.60;;;;;;4975358;28;20385;-77
2023/12/31 02:44:43;;;;;;;;;;;11.90;89.50;;;;;;4975506;28;19910;-77
2023/12/31 02:47:11;;;;;;;;;;;12.00;89.70;;;;;;4975516;28;20282;-78
2023/12/31 02:49:36;;;;;;;;;;;11.90;89.50;;;;;;4992916;28;20357;-77
2023/12/31 02:52:02;;;;;;;;;;;12.00;89.70;;;;;;4992927;28;19914;-77
2023/12/31 02:54:27;;;;;;;;;;;12.00;89.60;;;;;;4975438;28;19913;-77
2023/12/31 02:56:52;;;;;;;;;;;12.00;89.50;;;;;;4975115;28;20012;-78
2023/12/31 02:59:18;;;;;;;;;;;11.90;89.50;;;;;;4975210;28;20361;-78
2023/12/31 03:01:43;;;;;;;;;;;11.90;89.60;;;;;;4975232;28;19914;-77
2023/12/31 03:04:09;;;;;;;;;;;12.00;89.60;;;;;;5001825;28;19921;-77
2023/12/31 03:06:36;;;;;;;;;;;11.90;89.60;;;;;;5012023;28;19913;-77
2023/12/31 03:09:02;;;;;;;;;;;12.00;89.60;;;;;;5027421;28;19963;-77
2023/12/31 03:11:27;;;;;;;;;;;12.00;89.60;;;;;;5014234;28;19945;-76
2023/12/31 03:13:53;;;;;;;;;;;12.00;89.60;;;;;;5014262;28;20009;-78
2023/12/31 03:16:18;;;;;;;;;;;12.00;89.60;;;;;;5013794;28;19918;-77
2023/12/31 03:18:44;;;;;;;;;;;12.00;89.70;;;;;;5031746;28;19955;-78
2023/12/31 03:21:15;;;;;;;;;;;11.90;89.70;;;;;;5014291;28;19913;-77
2023/12/31 03:23:41;;;;;;;;;;;12.00;89.80;;;;;;5031905;28;19967;-77
2023/12/31 03:26:06;;;;;;;;;;;12.00;89.70;;;;;;5031521;28;19913;-77
2023/12/31 03:28:32;;;;;;;;;;;12.00;89.70;;;;;;5013921;28;20000;-77
2023/12/31 03:30:57;;;;;;;;;;;12.00;89.70;;;;;;5013911;28;19909;-76
2023/12/31 03:33:23;;;;;;;;;;;12.00;90.10;;;;;;5014258;28;19909;-77
2023/12/31 03:35:48;;;;;;;;;;;12.00;89.70;;;;;;5033844;28;19909;-76
2023/12/31 03:38:14;;;;;;;;;;;11.90;89.80;;;;;;5017992;28;19909;-76
2023/12/31 03:40:40;;;;;;;;;;;12.00;89.80;;;;;;5035944;28;19909;-78
2023/12/31 03:43:06;;;;;;;;;;;12.00;89.80;;;;;;5017879;28;19917;-79
2023/12/31 03:45:32;;;;;;;;;;;12.00;89.70;;;;;;5017736;28;19920;-77
2023/12/31 03:47:57;;;;;;;;;;;12.00;89.80;;;;;;5017568;28;19917;-77
2023/12/31 03:50:23;;;;;;;;;;;12.00;89.80;;;;;;5017543;28;20289;-77
2023/12/31 03:52:48;;;;;;;;;;;12.00;89.80;;;;;;5035549;28;19909;-78
2023/12/31 03:55:13;;;;;;;;;;;12.00;89.80;;;;;;5035652;28;19916;-77
2023/12/31 03:57:39;;;;;;;;;;;12.00;89.80;;;;;;5017287;28;19913;-76
2023/12/31 04:00:05;;;;;;;;;;;12.00;89.80;;;;;;5016609;28;19963;-76
2023/12/31 04:02:30;;;;;;;;;;;12.00;89.80;;;;;;5017645;28;19913;-78
2023/12/31 04:04:56;;;;;;;;;;;12.00;89.80;;;;;;5017420;28;20369;-77
2023/12/31 04:07:22;;;;;;;;;;;12.00;89.80;;;;;;5017309;28;19914;-77
2023/12/31 04:09:48;;;;;;;;;;;11.90;89.70;;;;;;5017598;28;19909;-78
2023/12/31 04:12:13;;;;;;;;;;;12.00;89.80;;;;;;5017356;28;19916;-77
2023/12/31 04:14:39;;;;;;;;;;;11.90;89.60;;;;;;5034994;28;19914;-77
2023/12/31 04:17:04;;;;;;;;;;;11.90;89.60;;;;;;5017325;28;20007;-77
2023/12/31 04:19:29;;;;;;;;;;;12.00;89.40;;;;;;5035006;28;19940;-77
2023/12/31 04:21:55;;;;;;;;;;;11.90;89.40;;;;;;5034814;28;19913;-77
2023/12/31 04:24:20;;;;;;;;;;;11.90;89.60;;;;;;5034923;28;19910;-77
2023/12/31 04:26:46;;;;;;;;;;;11.90;89.20;;;;;;5034632;28;20564;-78
2023/12/31 04:29:11;;;;;;;;;;;11.90;89.40;;;;;;5016882;28;19913;-77
2023/12/31 04:31:43;;;;;;;;;;;11.90;89.20;;;;;;5034808;28;19913;-78
2023/12/31 04:34:08;;;;;;;;;;;11.90;89.40;;;;;;5017180;28;19909;-77
2023/12/31 04:36:34;;;;;;;;;;;11.90;89.30;;;;;;5016475;28;19909;-78
2023/12/31 04:38:59;;;;;;;;;;;12.00;89.10;;;;;;5016914;28;19913;-77
2023/12/31 04:41:24;;;;;;;;;;;11.90;89.50;;;;;;5016748;28;19909;-77
2023/12/31 04:43:50;;;;;;;;;;;11.90;89.40;;;;;;5016914;28;19909;-77
2023/12/31 04:46:21;;;;;;;;;;;11.90;89.00;;;;;;5014777;28;20369;-77
2023/12/31 04:48:47;;;;;;;;;;;11.90;89.00;;;;;;5016400;28;19920;-78
2023/12/31 04:51:32;;;;;;;;;;;11.90;89.00;;;;;;5016485;28;19913;-77
2023/12/31 04:53:58;;;;;;;;;;;11.90;89.30;;;;;;5016053;28;19913;-77
2023/12/31 04:56:24;;;;;;;;;;;11.90;89.10;;;;;;5016008;28;19909;-77
2023/12/31 04:58:51;;;;;;;;;;;11.90;89.40;;;;;;5016255;28;20012;-77
2023/12/31 05:01:16;;;;;;;;;;;11.90;89.40;;;;;;5016187;28;19912;-77
2023/12/31 05:03:45;;;;;;;;;;;12.00;89.30;;;;;;4994139;28;19925;-78
2023/12/31 05:06:12;;;;;;;;;;;12.00;89.30;;;;;;5012546;28;19910;-77
2023/12/31 05:08:40;;;;;;;;;;;11.90;88.90;;;;;;5015958;28;19921;-77
2023/12/31 05:11:06;;;;;;;;;;;11.90;88.80;;;;;;4996544;28;19960;-76
2023/12/31 05:13:32;;;;;;;;;;;11.90;88.50;;;;;;5014037;28;19910;-78
2023/12/31 05:15:57;;;;;;;;;;;11.90;88.10;;;;;;4996289;28;19928;-78
2023/12/31 05:18:23;;;;;;;;;;;11.90;89.20;;;;;;4996460;28;20333;-78
2023/12/31 05:20:48;;;;;;;;;;;11.80;89.00;;;;;;4996734;28;19914;-77
2023/12/31 05:23:14;;;;;;;;;;;11.90;88.50;;;;;;4996616;28;20382;-78
2023/12/31 05:25:39;;;;;;;;;;;11.90;89.10;;;;;;5014157;28;20282;-77
2023/12/31 05:28:04;;;;;;;;;;;11.90;88.10;;;;;;4996206;28;19909;-77
2023/12/31 05:30:30;;;;;;;;;;;11.90;89.10;;;;;;4996391;28;19917;-77
2023/12/31 05:32:55;;;;;;;;;;;11.80;88.00;;;;;;4996266;28;19913;-78
2023/12/31 05:35:21;;;;;;;;;;;11.90;88.50;;;;;;4996013;28;19913;-77
2023/12/31 05:37:46;;;;;;;;;;;11.90;88.30;;;;;;4995964;28;20330;-76
2023/12/31 05:40:12;;;;;;;;;;;11.90;88.90;;;;;;4995859;28;20398;-77
2023/12/31 05:42:37;;;;;;;;;;;11.90;87.80;;;;;;4995736;28;19914;-77
2023/12/31 05:45:04;;;;;;;;;;;11.90;88.30;;;;;;5013819;28;19913;-77
2023/12/31 05:47:29;;;;;;;;;;;11.90;88.20;;;;;;4996134;28;19966;-77
2023/12/31 05:49:55;;;;;;;;;;;11.90;87.80;;;;;;5013638;28;19909;-77
2023/12/31 05:52:20;;;;;;;;;;;11.90;87.90;;;;;;4995956;28;20290;-77
2023/12/31 05:54:45;;;;;;;;;;;11.90;87.80;;;;;;4995689;28;20391;-77
2023/12/31 05:57:11;;;;;;;;;;;11.90;88.30;;;;;;5012765;28;19910;-78
2023/12/31 05:59:36;;;;;;;;;;;11.90;88.40;;;;;;4994280;28;19918;-77
2023/12/31 06:02:02;;;;;;;;;;;11.90;88.10;;;;;;5013023;28;19924;-78
2023/12/31 06:04:27;;;;;;;;;;;11.90;88.60;;;;;;5015760;28;19910;-77
2023/12/31 06:06:52;;;;;;;;;;;11.90;88.80;;;;;;5015097;28;19955;-78
2023/12/31 06:09:18;;;;;;;;;;;11.80;88.70;;;;;;5013513;28;19996;-76
2023/12/31 06:11:43;;;;;;;;;;;11.90;88.10;;;;;;4995599;28;19920;-77
2023/12/31 06:14:09;;;;;;;;;;;11.90;88.00;;;;;;5029444;28;20292;-77
2023/12/31 06:16:34;;;;;;;;;;;11.90;88.90;;;;;;5015081;28;20368;-77
2023/12/31 06:18:59;;;;;;;;;;;11.90;88.90;;;;;;5014885;28;19913;-77
2023/12/31 06:21:25;;;;;;;;;;;11.90;89.00;;;;;;5015219;28;20007;-78
2023/12/31 06:23:51;;;;;;;;;;;11.90;88.70;;;;;;5014898;28;19910;-76
2023/12/31 06:26:16;;;;;;;;;;;11.90;88.60;;;;;;5014930;28;19952;-77
2023/12/31 06:28:41;;;;;;;;;;;11.90;88.70;;;;;;5014819;28;19909;-77
2023/12/31 06:31:08;;;;;;;;;;;11.90;88.50;;;;;;5014994;28;19968;-78
2023/12/31 06:33:33;;;;;;;;;;;11.90;88.90;;;;;;5014770;28;19916;-77
2023/12/31 06:35:58;;;;;;;;;;;11.90;88.70;;;;;;5014293;28;19920;-78
2023/12/31 06:38:24;;;;;;;;;;;11.90;88.70;;;;;;5014677;28;19959;-78
2023/12/31 06:40:50;;;;;;;;;;;11.90;88.70;;;;;;5014865;28;19920;-78
2023/12/31 06:43:15;;;;;;;;;;;11.90;89.30;;;;;;5014712;28;19917;-77
2023/12/31 06:45:41;;;;;;;;;;;11.80;88.30;;;;;;5032282;28;19909;-78
2023/12/31 06:48:06;;;;;;;;;;;11.90;88.40;;;;;;5014338;28;19992;-77
2023/12/31 06:50:33;;;;;;;;;;;11.90;88.70;;;;;;5014636;28;19953;-77
2023/12/31 06:52:59;;;;;;;;;;;11.90;88.50;;;;;;5014620;28;19909;-77
2023/12/31 06:55:24;;;;;;;;;;;11.90;88.10;;;;;;5014594;28;19916;-77
2023/12/31 06:57:50;;;;;;;;;;;11.80;88.60;;;;;;5014593;28;19913;-77
2023/12/31 07:00:16;;;;;;;;;;;11.90;87.50;;;;;;5014498;28;20006;-76
2023/12/31 07:02:41;;;;;;;;;;;11.90;88.60;;;;;;5014568;28;20397;-78
2023/12/31 07:05:08;;;;;;;;;;;11.90;87.80;;;;;;5014383;28;20004;-77
2023/12/31 07:07:34;;;;;;;;;;;11.90;87.40;;;;;;5013915;28;19941;-77
2023/12/31 07:09:59;;;;;;;;;;;11.90;87.90;;;;;;5031067;28;20420;-77
2023/12/31 07:12:24;;;;;;;;;;;11.90;87.80;;;;;;5014455;28;20289;-78
2023/12/31 07:14:50;;;;;;;;;;;11.80;87.40;;;;;;5031870;28;19913;-78
2023/12/31 07:17:15;;;;;;;;;;;11.90;88.50;;;;;;5031622;28;19920;-78
2023/12/31 07:19:41;;;;;;;;;;;11.90;87.20;;;;;;5014161;28;19963;-77
2023/12/31 07:22:06;;;;;;;;;;;11.80;88.30;;;;;;5014328;28;19917;-77
2023/12/31 07:24:36;;;;;;;;;;;11.90;87.20;;;;;;5014070;28;19956;-77
2023/12/31 07:27:01;;;;;;;;;;;11.90;88.70;;;;;;5013979;28;19937;-77
2023/12/31 07:29:26;;;;;;;;;;;11.80;88.00;;;;;;5014153;28;19909;-77
2023/12/31 07:31:52;;;;;;;;;;;11.90;88.40;;;;;;5032086;28;20320;-77
2023/12/31 07:34:17;;;;;;;;;;;11.90;88.60;;;;;;5014032;28;19909;-76
2023/12/31 07:36:43;;;;;;;;;;;11.90;88.70;;;;;;5014256;28;19915;-78
2023/12/31 07:39:08;;;;;;;;;;;11.90;87.40;;;;;;5014105;28;19915;-77
2023/12/31 07:41:34;;;;;;;;;;;11.90;88.30;;;;;;5012835;28;20028;-77
2023/12/31 07:44:00;;;;;;;;;;;11.80;87.80;;;;;;5029132;28;19913;-77
2023/12/31 07:46:25;;;;;;;;;;;11.80;88.50;;;;;;5009553;28;20316;-76
2023/12/31 07:48:52;;;;;;;;;;;11.90;87.10;;;;;;4982530;28;19980;-77
2023/12/31 07:51:18;;;;;;;;;;;11.90;88.30;;;;;;4987833;28;20009;-77
2023/12/31 07:53:44;;;;;;;;;;;11.90;87.80;;;;;;4971830;28;20125;-77
2023/12/31 07:56:09;;;;;;;;;;;11.90;87.40;;;;;;4989255;28;20668;-77
2023/12/31 07:58:35;;;;;;;;;;;11.90;88.10;;;;;;4994085;28;19920;-77
2023/12/31 08:01:02;;;;;;;;;;;11.90;87.70;;;;;;5007568;28;19968;-76
2023/12/31 08:03:28;;;;;;;;;;;11.90;87.40;;;;;;5007036;28;20483;-78
2023/12/31 08:05:53;;;;;;;;;;;11.90;88.30;;;;;;5008755;28;19909;-78
2023/12/31 08:08:19;;;;;;;;;;;11.90;87.40;;;;;;4990759;28;19960;-77
2023/12/31 08:10:45;;;;;;;;;;;11.90;87.70;;;;;;4991670;28;19909;-78
2023/12/31 08:13:10;;;;;;;;;;;11.90;87.40;;;;;;4991336;28;19913;-77
2023/12/31 08:15:36;;;;;;;;;;;11.80;87.90;;;;;;5008405;28;19917;-77
2023/12/31 08:18:03;;;;;;;;;;;11.90;87.30;;;;;;4990135;28;19914;-77
2023/12/31 08:20:28;;;;;;;;;;;11.90;88.30;;;;;;4991791;28;20552;-78
2023/12/31 08:22:54;;;;;;;;;;;11.90;88.10;;;;;;5013012;28;19964;-77
2023/12/31 08:25:19;;;;;;;;;;;11.90;87.00;;;;;;4996153;28;19910;-78
2023/12/31 08:27:45;;;;;;;;;;;11.90;88.50;;;;;;4992877;28;19920;-78
2023/12/31 08:30:10;;;;;;;;;;;11.90;87.40;;;;;;5011079;28;19935;-77
2023/12/31 08:32:36;;;;;;;;;;;11.90;88.10;;;;;;5001732;28;19914;-78
2023/12/31 08:35:01;;;;;;;;;;;11.90;88.50;;;;;;4981341;28;20107;-77
2023/12/31 08:37:28;;;;;;;;;;;11.90;87.60;;;;;;4993483;28;19914;-77
2023/12/31 08:39:54;;;;;;;;;;;11.90;87.70;;;;;;4993065;28;19914;-77
2023/12/31 08:42:20;;;;;;;;;;;11.90;87.00;;;;;;4994018;28;19917;-76
2023/12/31 08:44:45;;;;;;;;;;;11.90;88.30;;;;;;5011304;28;19935;-76
2023/12/31 08:47:11;;;;;;;;;;;11.90;87.30;;;;;;4993294;28;19967;-76
2023/12/31 08:49:37;;;;;;;;;;;11.90;87.80;;;;;;5011339;28;19920;-77
2023/12/31 08:52:02;;;;;;;;;;;11.90;87.00;;;;;;4992985;28;19917;-77
2023/12/31 08:54:28;;;;;;;;;;;11.90;87.10;;;;;;5011703;28;20006;-77
2023/12/31 08:56:53;;;;;;;;;;;11.90;87.50;;;;;;4977290;28;19914;-78
2023/12/31 08:59:18;;;;;;;;;;;11.90;86.90;;;;;;4991836;28;19910;-78
2023/12/31 09:01:44;;;;;;;;;;;11.90;86.90;;;;;;4974648;28;20004;-77
2023/12/31 09:04:10;;;;;;;;;;;11.80;86.50;;;;;;4974428;28;19968;-77
2023/12/31 09:06:35;;;;;;;;;;;11.90;88.10;;;;;;4974712;28;19922;-77
2023/12/31 09:09:01;;;;;;;;;;;11.80;87.40;;;;;;5000970;28;20297;-77
2023/12/31 09:11:26;;;;;;;;;;;11.90;87.70;;;;;;4994445;28;19924;-78
2023/12/31 09:13:52;;;;;;;;;;;11.90;87.00;;;;;;4993898;28;19913;-77
2023/12/31 09:16:17;;;;;;;;;;;11.80;86.90;;;;;;4993210;28;20533;-77
2023/12/31 09:18:42;;;;;;;;;;;11.90;87.50;;;;;;4993232;28;19916;-77
2023/12/31 09:21:08;;;;;;;;;;;11.90;87.60;;;;;;5011166;28;19916;-77
2023/12/31 09:23:33;;;;;;;;;;;11.80;86.90;;;;;;4993117;28;19932;-77
2023/12/31 09:25:59;;;;;;;;;;;11.80;88.10;;;;;;4992531;28;20030;-78
2023/12/31 09:28:25;;;;;;;;;;;11.90;87.30;;;;;;4992726;28;20374;-78
2023/12/31 09:30:51;;;;;;;;;;;11.80;87.70;;;;;;4992811;28;19981;-77
2023/12/31 09:33:16;;;;;;;;;;;11.90;87.10;;;;;;4992123;28;20003;-78
2023/12/31 09:35:41;;;;;;;;;;;11.80;86.70;;;;;;4992424;28;19917;-78
2023/12/31 09:38:07;;;;;;;;;;;11.80;87.90;;;;;;5010460;28;20008;-78
2023/12/31 09:40:32;;;;;;;;;;;11.90;87.70;;;;;;5009734;28;19922;-78
2023/12/31 09:42:58;;;;;;;;;;;11.90;87.80;;;;;;5009348;28;19913;-78
2023/12/31 09:45:24;;;;;;;;;;;11.90;87.50;;;;;;5008669;28;19967;-76
2023/12/31 09:47:50;;;;;;;;;;;11.90;87.00;;;;;;5009837;28;20407;-77
2023/12/31 09:50:19;;;;;;;;;;;11.90;87.50;;;;;;4992501;28;19909;-77
2023/12/31 09:52:48;;;;;;;;;;;11.90;88.00;;;;;;4992311;28;19920;-77
2023/12/31 09:55:20;;;;;;;;;;;11.90;87.50;;;;;;4991306;28;19948;-76
2023/12/31 09:57:46;;;;;;;;;;;11.90;86.70;;;;;;4988849;28;19917;-77
2023/12/31 10:00:12;;;;;;;;;;;11.90;87.00;;;;;;4984516;28;19960;-77
2023/12/31 10:02:38;;;;;;;;;;;11.90;87.00;;;;;;4973311;28;19968;-77
2023/12/31 10:05:04;;;;;;;;;;;11.90;87.40;;;;;;4990624;28;20325;-77
2023/12/31 10:07:29;;;;;;;;;;;11.90;87.50;;;;;;4971867;28;19913;-78
2023/12/31 10:09:56;;;;;;;;;;;11.90;87.50;;;;;;5029788;23;19976;-79
2023/12/31 10:12:22;;;;;;;;;;;11.90;87.20;;;;;;5010743;28;19913;-79
2023/12/31 10:14:48;;;;;;;;;;;11.90;87.20;;;;;;5012401;28;20412;-77
2023/12/31 10:17:13;;;;;;;;;;;11.90;86.90;;;;;;5013137;28;19959;-79
2023/12/31 10:19:39;;;;;;;;;;;11.90;87.30;;;;;;5031460;28;19909;-79
2023/12/31 10:22:05;;;;;;;;;;;11.90;86.50;;;;;;5030698;28;19917;-78
2023/12/31 10:24:41;;;;;;;;;;;11.90;87.50;;;;;;5028844;28;19913;-78
2023/12/31 10:27:47;;;;;;;;;;;11.90;87.10;;;;;;5029861;28;19913;-80
2023/12/31 10:30:21;;;;;;;;;;;12.00;86.50;;;;;;5031388;28;20449;-78
2023/12/31 10:36:01;;;;;;;;;;;12.10;87.70;;;;;;5028241;28;19916;-78
2023/12/31 10:38:27;;;;;;;;;;;13.20;88.10;;;;;;5029734;28;19959;-78
2023/12/31 10:40:53;;;;;;;;;;;12.00;88.00;;;;;;5030053;28;20378;-79
2023/12/31 10:43:20;;;;;;;;;;;11.90;87.20;;;;;;5030416;28;19996;-80
2023/12/31 10:45:46;;;;;;;;;;;11.90;87.30;;;;;;5030834;28;20003;-79
2023/12/31 10:48:12;;;;;;;;;;;11.90;87.20;;;;;;5030446;28;19913;-79
2023/12/31 10:50:39;;;;;;;;;;;11.90;87.00;;;;;;5030496;28;20313;-79
2023/12/31 10:53:07;;;;;;;;;;;11.90;87.30;;;;;;5030031;28;19913;-79
2023/12/31 11:10:10;;;;;;;;;;;11.80;87.00;;;;;;5208274;23;19940;-77
2023/12/31 11:12:55;;;;;;;;;;;11.50;87.10;;;;;;5011985;28;20016;-77
2023/12/31 11:15:22;;;;;;;;;;;11.80;87.30;;;;;;5011675;28;19913;-78
2023/12/31 11:18:12;;;;;;;;;;;11.90;86.80;;;;;;5011338;28;19936;-78
2023/12/31 11:21:07;;;;;;;;;;;12.40;87.60;;;;;;5012094;28;20396;-77
2023/12/31 12:10:35;;;;;;;;;;;12.10;87.70;;;;;;5015939;28;19924;-77
2023/12/31 12:13:06;;;;;;;;;;;12.10;87.50;;;;;;5016278;28;19918;-78
2023/12/31 12:30:50;;;;;;;;;;;12.10;87.20;;;;;;4954521;29;19970;-79
2023/12/31 12:33:15;;;;;;;;;;;12.10;87.40;;;;;;4953154;29;20368;-79
2023/12/31 12:38:50;;;;;;;;;;;12.00;87.60;;;;;;4930218;28;19961;-81
2023/12/31 12:41:22;;;;;;;;;;;13.20;88.50;;;;;;4952743;28;19910;-76
2023/12/31 12:44:06;;;;;;;;;;;12.00;87.80;;;;;;4955627;28;19921;-77
2023/12/31 12:47:10;;;;;;;;;;;12.00;87.70;;;;;;4991914;28;19905;-77
2023/12/31 12:56:01;;;;;;;;;;;12.00;87.70;;;;;;5002794;28;19910;-77
2023/12/31 12:59:03;;;;;;;;;;;;;;;;;;;;;
2023/12/31 13:01:44;;;;;;;;;;;12.00;87.70;;;;;;5005925;28;19960;-80
2023/12/31 13:04:37;;;;;;;;;;;12.00;88.00;;;;;;4992647;28;19918;-77
2023/12/31 13:07:11;;;;;;;;;;;12.00;87.90;;;;;;4991911;28;19914;-79
2023/12/31 13:10:10;;;;;;;;;;;13.20;88.20;;;;;;4991919;28;20290;-78
2023/12/31 13:12:44;;;;;;;;;;;12.10;88.10;;;;;;4990965;28;19911;-79
2023/12/31 13:15:10;;;;;;;;;;;12.00;87.40;;;;;;4989840;28;19936;-78
2023/12/31 13:17:38;;;;;;;;;;;11.90;87.60;;;;;;4973153;28;19915;-78
2023/12/31 13:20:05;;;;;;;;;;;12.10;88.10;;;;;;4974059;28;20448;-79
2023/12/31 13:22:49;;;;;;;;;;;12.00;88.60;;;;;;4985683;28;19926;-78
2023/12/31 13:25:17;;;;;;;;;;;12.00;88.00;;;;;;4993664;28;19918;-78
2023/12/31 13:27:42;;;;;;;;;;;12.00;88.20;;;;;;4993638;28;19921;-79
2023/12/31 13:30:08;;;;;;;;;;;12.10;88.20;;;;;;4993602;28;19913;-78
2023/12/31 13:32:36;;;;;;;;;;;12.00;88.00;;;;;;5010874;28;19909;-79
2023/12/31 13:35:07;;;;;;;;;;;12.00;88.30;;;;;;4994173;28;19935;-80
2023/12/31 13:37:35;;;;;;;;;;;11.90;88.20;;;;;;4993376;28;20536;-78
2023/12/31 13:40:00;;;;;;;;;;;12.50;88.70;;;;;;4993535;28;20017;-78
2023/12/31 13:42:30;;;;;;;;;;;13.00;88.30;;;;;;5009712;28;20453;-79
2023/12/31 13:44:56;;;;;;;;;;;12.40;88.40;;;;;;4993798;28;19909;-80
2023/12/31 13:47:28;;;;;;;;;;;12.00;88.30;;;;;;5011308;28;20886;-78
2023/12/31 13:49:54;;;;;;;;;;;12.00;88.30;;;;;;4992624;28;19917;-78
2023/12/31 13:52:26;;;;;;;;;;;12.60;88.80;;;;;;4993207;28;20711;-79
2023/12/31 13:54:52;;;;;;;;;;;11.90;88.50;;;;;;4993616;28;19910;-79
2023/12/31 13:57:17;;;;;;;;;;;12.20;88.40;;;;;;4993583;28;19975;-79
2023/12/31 13:59:46;;;;;;;;;;;12.00;88.20;;;;;;5011269;28;19909;-79
2023/12/31 14:02:14;;;;;;;;;;;12.00;88.50;;;;;;4993211;28;20445;-79
2023/12/31 14:04:42;;;;;;;;;;;12.00;88.30;;;;;;4993752;28;19913;-78
2023/12/31 14:07:16;;;;;;;;;;;12.00;88.40;;;;;;5008939;28;19919;-78
2023/12/31 14:09:42;;;;;;;;;;;12.10;89.00;;;;;;4992549;28;19960;-78
2023/12/31 14:12:16;;;;;;;;;;;12.20;88.50;;;;;;4992330;28;19956;-78
2023/12/31 14:14:41;;;;;;;;;;;12.00;88.10;;;;;;4992724;28;19941;-79
2023/12/31 14:17:07;;;;;;;;;;;11.90;88.80;;;;;;4992008;28;19960;-79
2023/12/31 14:19:35;;;;;;;;;;;12.10;88.60;;;;;;4992682;28;19980;-78
2023/12/31 14:22:08;;;;;;;;;;;12.10;88.70;;;;;;5008029;28;20012;-78
2023/12/31 14:24:36;;;;;;;;;;;11.90;88.10;;;;;;5008681;28;20362;-78
2023/12/31 14:27:04;;;;;;;;;;;12.00;88.30;;;;;;4992909;28;19922;-79
2023/12/31 14:29:33;;;;;;;;;;;12.00;88.50;;;;;;4992153;28;19918;-78
2023/12/31 14:32:01;;;;;;;;;;;12.30;88.40;;;;;;4992683;28;19910;-79
2023/12/31 14:34:29;;;;;;;;;;;12.10;88.70;;;;;;4993059;28;20621;-79
2023/12/31 14:37:11;;;;;;;;;;;12.00;88.50;;;;;;5009764;28;19953;-80
2023/12/31 14:39:36;;;;;;;;;;;12.00;88.50;;;;;;4993473;28;20436;-78
2023/12/31 14:42:05;;;;;;;;;;;12.20;88.70;;;;;;4992454;28;19914;-78
2023/12/31 14:44:45;;;;;;;;;;;12.00;87.80;;;;;;4992211;28;20040;-79
2023/12/31 14:47:29;;;;;;;;;;;12.00;87.90;;;;;;4993591;28;20345;-79
2023/12/31 14:49:55;;;;;;;;;;;11.80;88.00;;;;;;4991759;28;20527;-78
2023/12/31 14:52:28;;;;;;;;;;;12.00;87.80;;;;;;5008485;28;19913;-79
2023/12/31 14:54:53;;;;;;;;;;;12.00;88.10;;;;;;5009112;28;19913;-78
2023/12/31 14:57:19;;;;;;;;;;;12.00;87.60;;;;;;5010387;28;19909;-79
2023/12/31 14:59:44;;;;;;;;;;;11.90;87.90;;;;;;5010029;28;20377;-79
2023/12/31 15:02:18;;;;;;;;;;;12.00;87.60;;;;;;4991686;28;19921;-80
2023/12/31 15:04:44;;;;;;;;;;;12.00;87.40;;;;;;4991404;28;19961;-80
2023/12/31 15:07:10;;;;;;;;;;;11.90;88.00;;;;;;4991166;28;20415;-78
2023/12/31 15:09:35;;;;;;;;;;;12.00;87.40;;;;;;4990740;28;19996;-79
2023/12/31 15:12:01;;;;;;;;;;;11.90;87.90;;;;;;4992428;28;20004;-79
2023/12/31 15:14:26;;;;;;;;;;;12.70;87.80;;;;;;5007511;28;19914;-78
2023/12/31 15:16:52;;;;;;;;;;;11.90;87.20;;;;;;5007606;28;19964;-78
2023/12/31 15:19:18;;;;;;;;;;;12.00;88.10;;;;;;4989802;28;19967;-78
2023/12/31 15:21:43;;;;;;;;;;;12.00;88.10;;;;;;4989419;28;20449;-78
2023/12/31 15:24:09;;;;;;;;;;;11.90;87.90;;;;;;4988539;28;20405;-77
2023/12/31 15:26:35;;;;;;;;;;;11.90;87.80;;;;;;4990276;28;19968;-79
2023/12/31 15:29:01;;;;;;;;;;;11.90;87.80;;;;;;4989944;28;20008;-77
2023/12/31 15:31:26;;;;;;;;;;;12.00;87.40;;;;;;5005446;28;20012;-77
2023/12/31 15:33:52;;;;;;;;;;;11.90;88.00;;;;;;5000452;28;19924;-79
2023/12/31 15:36:17;;;;;;;;;;;11.90;88.10;;;;;;4986641;28;19952;-78
2023/12/31 15:38:43;;;;;;;;;;;12.00;87.90;;;;;;4981213;28;19913;-78
2023/12/31 15:41:08;;;;;;;;;;;11.90;87.90;;;;;;4994731;28;19918;-78
2023/12/31 15:43:34;;;;;;;;;;;11.90;88.30;;;;;;4994179;28;19917;-78
2023/12/31 15:45:59;;;;;;;;;;;12.00;88.50;;;;;;4994833;28;19960;-78
2023/12/31 15:48:24;;;;;;;;;;;11.90;87.90;;;;;;4994295;28;19999;-77